Terminal Aerodrome Forecast
Issued by NWS

Current Version | Previous Version | Graphics & Text | Print | Product List | Glossary On
Versions: 1 2 3 4 5 6 7 8 9 10 11 12 13 14 15 16 17 18 19
221
FTUS41 KPBZ 291723
TAFHLG
TAF
KHLG 291723Z 2918/3018 04006KT P6SM OVC015
     FM292000 07010G18KT P6SM -SHRA BKN050
     FM300400 09013KT P6SM -SHRA BKN035
     FM300900 09013KT P6SM VCSH OVC050=

USA.gov is the U.S. government's official web portal to all federal, state and local government web resources and services.